Raoul Island Kermadec Island, New Zealand
Current Conditions -  °F | °C
As of 2:00 PM on Wednesday 22 Oct 2014 (Local Time) from NFTF Reporting Station
Broken Clouds Broken Clouds  
Wind Chill: 79°   Ceiling: 12000
Heat Index: 81°   Visibility: 6mi
Dew Point: 64°   Wind: 3mph
Humidity: 61%   Direction: NA
Pressure: 29.91"   Gusts: NA
Location:  29.25°S, 177.92°W
Report Text: NFTF 220200Z VRB03KT 9999 FEW017TCU BKN120 26/18 Q1013
Loading
Personal Weather Stations






























Interactive Weather Map
Tropical Storm Tracking
New forecast layout! Learn more

10-Day Weather Forecast

Advertisements
Track Severe Weather on mobile